createdAt,value
2017-06-22T17:49:11.092Z,63.33
2017-06-22T17:51:39.433Z,64.94
2017-06-22T17:54:07.791Z,64.55
2017-06-22T17:56:36.529Z,64.79
2017-06-22T17:59:05.076Z,65.63
2017-06-22T18:01:33.416Z,66.59
2017-06-22T18:04:01.768Z,67.02
2017-06-22T18:06:30.212Z,67.23
2017-06-22T18:08:58.569Z,67.50
2017-06-22T18:11:27.481Z,68.05
2017-06-22T18:13:55.829Z,67.98
2017-06-22T18:16:24.177Z,68.13
2017-06-22T18:20:32.463Z,68.36
2017-06-22T18:23:00.889Z,68.83
2017-06-22T18:25:29.297Z,68.77
2017-06-22T18:27:57.909Z,68.92
2017-06-22T18:30:26.385Z,69.17
2017-06-22T18:32:54.795Z,69.56
2017-06-22T18:35:23.226Z,69.38
2017-06-22T18:37:52.028Z,69.19
2017-06-22T18:40:20.848Z,69.38
2017-06-22T18:42:49.251Z,69.89
2017-06-22T18:45:17.788Z,70.06
2017-06-22T18:47:46.596Z,70.03
2017-06-22T18:50:15.030Z,70.34
2017-06-22T18:52:43.436Z,70.41
2017-06-22T18:55:12.252Z,70.62
2017-06-22T18:57:40.739Z,70.75
2017-06-22T19:00:09.395Z,70.65
2017-06-22T19:02:37.823Z,70.59
2017-06-22T19:05:06.237Z,70.74
2017-06-22T19:07:34.662Z,70.94
2017-06-22T19:10:03.080Z,71.18
2017-06-22T19:12:31.508Z,70.95
2017-06-22T19:14:59.938Z,70.70
2017-06-22T19:17:28.377Z,70.44
2017-06-22T19:19:56.885Z,70.32
2017-06-22T19:22:25.440Z,70.38
2017-06-22T19:24:53.856Z,70.81
2017-06-22T19:27:22.263Z,70.61
2017-06-22T19:29:50.712Z,71.24
2017-06-22T19:32:19.120Z,71.13
2017-06-22T19:34:47.636Z,71.49
2017-06-22T19:37:16.040Z,71.16
2017-06-22T19:39:44.490Z,71.50
2017-06-22T19:42:12.898Z,71.49
2017-06-22T19:44:41.511Z,71.95
2017-06-22T19:47:09.921Z,71.92
2017-06-22T19:49:38.732Z,71.54
2017-06-22T19:52:07.160Z,71.24
2017-06-22T19:54:35.585Z,70.50
2017-06-22T19:57:04.044Z,71.54
2017-06-22T19:59:32.467Z,75.28
2017-06-22T20:02:00.921Z,78.37
2017-06-22T20:04:29.737Z,82.02
2017-06-22T20:06:58.163Z,84.50
2017-06-22T20:09:26.577Z,87.29
2017-06-22T20:11:55.577Z,88.52
2017-06-22T20:14:24.397Z,89.99
2017-06-22T20:16:52.813Z,90.79
2017-06-22T20:19:21.233Z,92.12
2017-06-22T20:21:49.652Z,92.59
2017-06-22T20:24:18.067Z,93.28
2017-06-22T20:26:46.481Z,93.62
2017-06-22T20:29:14.924Z,93.81
2017-06-22T20:31:43.336Z,94.24
2017-06-22T20:34:12.028Z,94.47
2017-06-22T20:36:40.444Z,94.58
2017-06-22T20:39:08.865Z,94.72
2017-06-22T20:41:37.301Z,94.27
2017-06-22T20:44:05.703Z,94.69
2017-06-22T20:46:34.122Z,94.95
2017-06-22T20:49:02.541Z,95.05
2017-06-22T20:51:30.979Z,95.50
2017-06-22T20:53:59.787Z,95.93
2017-06-22T20:56:28.224Z,96.30
2017-06-22T20:58:56.636Z,96.46
2017-06-22T21:01:25.042Z,96.60
2017-06-22T21:03:53.496Z,96.22
2017-06-22T21:06:21.920Z,95.58
2017-06-22T21:08:50.365Z,95.18
2017-06-22T21:11:18.770Z,94.99
2017-06-22T21:13:47.224Z,94.88
2017-06-22T21:16:15.656Z,94.76
2017-06-22T21:18:44.067Z,94.67
2017-06-22T21:21:12.900Z,94.52
2017-06-22T21:23:41.311Z,94.46
2017-06-22T21:26:09.931Z,94.55
2017-06-22T21:28:38.349Z,94.21
2017-06-22T21:31:06.768Z,93.96
2017-06-22T21:33:35.205Z,93.84
2017-06-22T21:36:03.647Z,93.88
2017-06-22T21:38:32.477Z,93.80
2017-06-22T21:41:00.878Z,93.71
2017-06-22T21:43:29.338Z,93.73
2017-06-22T21:45:57.763Z,93.91
2017-06-22T21:48:26.361Z,94.05
2017-06-22T21:50:55.179Z,94.24
2017-06-22T21:53:23.600Z,94.01
2017-06-22T21:55:52.019Z,93.87
2017-06-22T21:58:20.829Z,93.82
2017-06-22T22:00:49.254Z,93.97
2017-06-22T22:03:17.672Z,93.82
2017-06-22T22:05:46.500Z,94.00
2017-06-22T22:08:14.902Z,94.03
2017-06-22T22:10:43.560Z,93.53
2017-06-22T22:13:12.045Z,93.29
2017-06-22T22:15:40.461Z,93.13
2017-06-22T22:18:08.883Z,93.54
2017-06-22T22:20:37.300Z,93.77
2017-06-22T22:23:05.732Z,93.47
2017-06-22T22:25:34.539Z,93.00
2017-06-22T22:28:03.141Z,93.42
2017-06-22T22:30:31.562Z,93.09
2017-06-22T22:32:59.980Z,94.12
2017-06-22T22:35:28.420Z,94.84
2017-06-22T22:37:56.840Z,94.89
2017-06-22T22:40:25.320Z,94.67
2017-06-22T22:42:53.740Z,94.54
2017-06-22T22:45:22.388Z,94.46
2017-06-22T22:47:50.820Z,94.08
2017-06-22T22:50:19.223Z,93.89
2017-06-22T22:52:48.056Z,93.87
2017-06-22T22:55:16.462Z,95.47
2017-06-22T22:57:44.924Z,96.46
2017-06-22T23:00:13.332Z,97.22
2017-06-22T23:02:41.799Z,98.41
2017-06-22T23:05:10.404Z,99.37
2017-06-22T23:07:38.960Z,99.48
2017-06-22T23:10:07.404Z,99.51
2017-06-22T23:12:36.210Z,99.69
2017-06-22T23:15:04.636Z,99.88
2017-06-22T23:17:33.053Z,100.00
2017-06-22T23:20:01.880Z,100.00
2017-06-22T23:22:30.283Z,100.00
2017-06-22T23:24:58.716Z,100.00
2017-06-22T23:27:27.136Z,100.00
2017-06-22T23:29:55.576Z,100.00
2017-06-22T23:32:24.003Z,100.00
2017-06-22T23:34:52.431Z,100.00
2017-06-22T23:37:21.260Z,100.00
2017-06-22T23:39:49.733Z,100.00
2017-06-22T23:42:18.168Z,100.00
2017-06-22T23:44:46.962Z,100.00
2017-06-22T23:47:15.800Z,100.00
2017-06-22T23:49:44.246Z,100.00
2017-06-22T23:52:13.048Z,100.00
2017-06-22T23:54:41.488Z,100.00
2017-06-22T23:57:09.901Z,100.00
2017-06-22T23:59:38.484Z,100.00
